Time;durP1;ratioP1;P1;durP2;ratioP2;P2;SDS_P1;SDS_P2;PMS_P1;PMS_P2;Temp;Humidity;BMP_temperature;BMP_pressure;BME280_temperature;BME280_humidity;BME280_pressure;Samples;Min_cycle;Max_cycle;Signal;HPM_P1;HPM_P2
2021/06/15 00:02:15;;;;;;;12.07;5.70;;;;;;;11.95;78.08;91171.59;4982880;28;20027;-87
2021/06/15 00:04:41;;;;;;;10.50;5.53;;;;;;;11.94;78.14;91162.25;4999346;28;20029;-86
2021/06/15 00:07:06;;;;;;;9.70;5.57;;;;;;;12.08;77.86;91171.56;4983025;28;20435;-87
2021/06/15 00:09:35;;;;;;;8.38;5.07;;;;;;;12.12;77.72;91172.41;4983953;28;20026;-87
2021/06/15 00:12:08;;;;;;;9.15;5.65;;;;;;;12.02;77.94;91170.28;5000906;28;20026;-88
2021/06/15 00:14:36;;;;;;;10.77;5.30;;;;;;;12.02;77.85;91172.91;4984448;28;20018;-87
2021/06/15 00:17:03;;;;;;;11.57;5.88;;;;;;;11.98;78.01;91169.41;4984650;28;20029;-86
2021/06/15 00:19:32;;;;;;;11.63;5.22;;;;;;;11.98;77.81;91166.78;5016630;28;20034;-87
2021/06/15 00:21:59;;;;;;;12.23;5.80;;;;;;;11.82;78.99;91166.69;5002268;28;20026;-88
2021/06/15 00:24:25;;;;;;;12.10;5.90;;;;;;;11.76;78.84;91162.78;5000182;28;20029;-88
2021/06/15 00:26:51;;;;;;;8.70;5.40;;;;;;;11.80;78.53;91174.88;5017440;28;20022;-86
2021/06/15 00:29:23;;;;;;;9.50;4.80;;;;;;;11.82;78.93;91169.31;4968544;28;20030;-88
2021/06/15 00:31:50;;;;;;;7.63;5.10;;;;;;;11.76;78.62;91168.00;5001709;28;20030;-88
2021/06/15 00:34:17;;;;;;;8.52;4.78;;;;;;;11.79;78.41;91168.09;5002047;28;20030;-88
2021/06/15 00:36:44;;;;;;;10.27;5.07;;;;;;;11.75;78.21;91162.03;4993226;28;20045;-87
2021/06/15 00:39:10;;;;;;;11.07;5.38;;;;;;;11.67;78.45;91170.75;4996492;28;20455;-89
2021/06/15 00:41:37;;;;;;;8.32;5.25;;;;;;;11.53;78.49;91157.25;5018486;28;20023;-88
2021/06/15 00:44:06;;;;;;;9.23;4.65;;;;;;;11.67;78.22;91165.53;5012760;28;20088;-85
2021/06/15 00:46:33;;;;;;;12.70;4.90;;;;;;;11.63;78.25;91173.25;5013136;28;20403;-85
2021/06/15 00:49:02;;;;;;;9.30;4.90;;;;;;;11.58;78.46;91168.22;4996621;28;20037;-86
2021/06/15 00:51:32;;;;;;;7.55;4.47;;;;;;;11.49;78.67;91163.13;4996867;28;20511;-85
2021/06/15 00:54:04;;;;;;;9.50;4.65;;;;;;;11.44;79.01;91168.56;5012487;28;20534;-86
2021/06/15 00:56:39;;;;;;;9.60;4.30;;;;;;;11.40;78.88;91170.31;4980973;28;20030;-86
2021/06/15 00:59:15;;;;;;;12.43;4.97;;;;;;;11.42;78.53;91170.75;5012430;28;20089;-85
2021/06/15 01:01:48;;;;;;;9.07;4.53;;;;;;;11.41;78.36;91169.22;4996891;28;20017;-86
2021/06/15 01:04:15;;;;;;;9.95;5.15;;;;;;;11.43;78.19;91171.50;5028887;28;20026;-86
2021/06/15 01:07:02;;;;;;;7.07;4.38;;;;;;;11.38;78.13;91169.13;4996202;28;20030;-85
2021/06/15 01:10:04;;;;;;;6.85;4.53;;;;;;;11.24;78.57;91170.19;5014731;28;20037;-85
2021/06/15 01:13:02;;;;;;;10.65;4.57;;;;;;;11.13;79.16;91168.31;4998096;28;20108;-85
2021/06/15 01:15:58;;;;;;;8.05;4.70;;;;;;;11.06;79.62;91163.66;5011975;28;20037;-85
2021/06/15 01:18:34;;;;;;;9.32;4.57;;;;;;;11.14;79.26;91167.25;5012307;28;20128;-86
2021/06/15 01:21:07;;;;;;;8.68;4.32;;;;;;;11.07;79.37;91159.19;4996469;28;20026;-86
2021/06/15 01:23:58;;;;;;;7.93;4.45;;;;;;;11.04;79.91;91162.44;5011890;28;20021;-86
2021/06/15 01:26:56;;;;;;;8.15;5.07;;;;;;;10.98;79.63;91152.22;5028265;28;20085;-85
2021/06/15 01:29:42;;;;;;;9.32;4.15;;;;;;;11.00;79.54;91160.50;5011789;28;20065;-86
2021/06/15 01:32:10;;;;;;;8.57;4.68;;;;;;;11.15;78.71;91150.50;5011082;28;20033;-88
2021/06/15 01:34:40;;;;;;;9.40;4.25;;;;;;;11.05;78.68;91146.47;4979475;28;20522;-85
2021/06/15 01:37:09;;;;;;;9.95;4.20;;;;;;;10.90;78.70;91145.25;5001207;28;20038;-86
2021/06/15 01:39:59;;;;;;;5.93;3.85;;;;;;;10.99;79.04;91148.53;4991762;28;20396;-86
2021/06/15 01:42:28;;;;;;;11.80;4.80;;;;;;;10.92;79.25;91148.31;5002501;28;20120;-85
2021/06/15 01:44:59;;;;;;;10.23;4.40;;;;;;;10.79;79.63;91140.78;4991549;28;20143;-86
2021/06/15 01:47:27;;;;;;;8.07;4.45;;;;;;;10.83;79.40;91139.06;4991722;28;20053;-85
2021/06/15 01:49:57;;;;;;;10.57;4.40;;;;;;;10.93;79.35;91138.66;4975043;28;20032;-86
2021/06/15 01:52:41;;;;;;;6.50;4.15;;;;;;;10.83;79.36;91134.59;4991562;28;20029;-85
2021/06/15 01:55:18;;;;;;;14.45;4.28;;;;;;;10.88;79.07;91131.78;5031392;23;20049;-86
2021/06/15 01:57:48;;;;;;;8.73;4.03;;;;;;;10.77;79.45;91128.81;4990971;28;20034;-85
2021/06/15 02:00:19;;;;;;;8.80;4.63;;;;;;;10.72;79.59;91123.06;4975095;28;20024;-85
2021/06/15 02:02:45;;;;;;;9.60;4.57;;;;;;;10.67;79.50;91131.09;4991111;28;20026;-84
2021/06/15 02:05:12;;;;;;;7.70;3.95;;;;;;;10.68;79.35;91127.41;4958591;28;20034;-85
2021/06/15 02:07:40;;;;;;;6.15;4.03;;;;;;;10.69;79.14;91127.06;4958166;28;20026;-86
2021/06/15 02:10:09;;;;;;;9.35;4.15;;;;;;;10.67;79.36;91121.44;4958027;28;20496;-84
2021/06/15 02:12:40;;;;;;;9.43;4.22;;;;;;;10.69;79.51;91121.88;4991149;28;20022;-87
2021/06/15 02:15:10;;;;;;;9.40;4.10;;;;;;;10.57;79.95;91114.03;4975358;28;20146;-87
2021/06/15 02:17:39;;;;;;;11.23;4.32;;;;;;;10.56;79.94;91115.09;4975403;28;20089;-86
2021/06/15 02:20:15;;;;;;;11.52;4.93;;;;;;;10.55;79.68;91107.63;4958985;28;20117;-85
2021/06/15 02:22:52;;;;;;;9.70;4.03;;;;;;;10.51;79.49;91110.84;4959938;28;20026;-85
2021/06/15 02:25:28;;;;;;;8.63;3.80;;;;;;;10.46;79.67;91108.47;4975525;28;20403;-87
2021/06/15 02:27:57;;;;;;;7.20;4.70;;;;;;;10.42;79.58;91110.16;4974907;28;20023;-85
2021/06/15 02:30:24;;;;;;;9.07;4.85;;;;;;;10.42;79.50;91109.41;4974858;28;20439;-84
2021/06/15 02:32:52;;;;;;;8.32;4.30;;;;;;;10.47;79.68;91112.59;4974685;28;20068;-85
2021/06/15 02:35:23;;;;;;;6.80;4.07;;;;;;;10.58;78.82;91106.97;4958832;28;20030;-85
2021/06/15 02:38:07;;;;;;;8.10;4.32;;;;;;;10.38;79.14;91103.31;4990648;28;20022;-86
2021/06/15 02:40:39;;;;;;;6.00;3.72;;;;;;;10.43;79.65;91106.50;4990911;28;20086;-85
2021/06/15 02:43:06;;;;;;;7.90;4.10;;;;;;;10.43;79.36;91106.50;4974755;28;20034;-83
2021/06/15 02:45:34;;;;;;;9.07;4.32;;;;;;;10.34;79.60;91113.63;4974580;28;20113;-85
2021/06/15 02:48:05;;;;;;;11.50;3.95;;;;;;;10.29;79.85;91112.00;4974552;28;20083;-85
2021/06/15 02:50:31;;;;;;;14.32;4.55;;;;;;;10.20;80.54;91107.91;4991711;28;20034;-85
2021/06/15 02:53:17;;;;;;;9.20;4.60;;;;;;;10.25;80.49;91111.13;4974488;28;20527;-85
2021/06/15 02:55:54;;;;;;;6.85;3.70;;;;;;;10.39;79.80;91110.84;4990432;28;20384;-88
2021/06/15 02:58:21;;;;;;;8.48;4.40;;;;;;;10.27;80.40;91102.97;4975687;28;20057;-85
2021/06/15 03:00:48;;;;;;;9.82;4.20;;;;;;;10.24;80.95;91098.38;4991556;28;20603;-85
2021/06/15 03:03:15;;;;;;;10.25;4.63;;;;;;;10.22;80.49;91100.53;4974446;28;20083;-85
2021/06/15 03:05:44;;;;;;;10.23;4.15;;;;;;;10.04;81.45;91103.31;4990292;28;20533;-85
2021/06/15 03:08:13;;;;;;;9.43;4.70;;;;;;;10.15;82.01;91100.31;4993848;28;20030;-85
2021/06/15 03:10:40;;;;;;;7.13;4.47;;;;;;;10.10;81.12;91098.63;4978180;28;20026;-85
2021/06/15 03:13:35;;;;;;;11.30;4.70;;;;;;;10.04;80.72;91103.31;4961967;28;20030;-85
2021/06/15 03:16:03;;;;;;;5.90;3.80;;;;;;;10.11;80.85;91104.63;4975039;28;20030;-85
2021/06/15 03:19:13;;;;;;;8.30;4.00;;;;;;;10.11;81.05;91104.63;4958828;28;20038;-86
2021/06/15 03:21:48;;;;;;;9.00;4.40;;;;;;;10.15;80.40;91102.91;4905324;29;20032;-85
2021/06/15 03:24:26;;;;;;;9.20;4.40;;;;;;;10.08;81.07;91105.28;4966221;28;20043;-85
2021/06/15 03:27:06;;;;;;;8.85;4.15;;;;;;;10.11;80.42;91110.59;4942690;28;20031;-85
2021/06/15 03:29:42;;;;;;;7.53;4.28;;;;;;;10.04;80.82;91113.72;4958548;28;20031;-85
2021/06/15 03:32:21;;;;;;;6.03;4.05;;;;;;;10.05;80.61;91112.63;4959269;28;20492;-85
2021/06/15 03:34:56;;;;;;;7.97;4.45;;;;;;;9.95;80.47;91115.63;4959004;28;20050;-85
2021/06/15 03:37:24;;;;;;;8.23;4.05;;;;;;;9.83;80.48;91123.38;4970593;28;20463;-85
2021/06/15 03:39:52;;;;;;;8.57;5.18;;;;;;;9.67;80.40;91117.97;4961457;28;20038;-85
2021/06/15 03:42:21;;;;;;;7.85;4.85;;;;;;;9.77;79.83;91122.03;4993691;28;20117;-85
2021/06/15 03:44:57;;;;;;;6.80;3.97;;;;;;;9.65;80.04;91120.13;4977549;28;20052;-85
2021/06/15 03:47:26;;;;;;;9.48;4.80;;;;;;;9.70;79.75;91119.94;4978391;28;20023;-84
2021/06/15 03:50:00;;;;;;;7.60;4.60;;;;;;;9.62;80.41;91120.00;4993625;28;20034;-89
2021/06/15 03:52:41;;;;;;;8.35;4.53;;;;;;;9.63;81.03;91121.53;4988864;28;20018;-87
2021/06/15 03:55:11;;;;;;;8.13;4.63;;;;;;;9.67;81.18;91122.41;4984316;28;20121;-85
2021/06/15 03:57:43;;;;;;;11.48;4.50;;;;;;;9.67;81.53;91120.56;4961704;28;20570;-85
2021/06/15 04:00:14;;;;;;;8.05;4.50;;;;;;;9.78;81.54;91119.09;4977869;28;20599;-84
2021/06/15 04:02:40;;;;;;;12.60;5.03;;;;;;;9.88;82.28;91123.19;4978091;28;20049;-86
2021/06/15 04:05:08;;;;;;;6.35;4.03;;;;;;;10.07;81.00;91120.13;4977083;28;20023;-85
2021/06/15 04:07:38;;;;;;;7.55;3.95;;;;;;;9.99;81.07;91119.09;4977347;28;20023;-86
2021/06/15 04:10:10;;;;;;;10.75;4.70;;;;;;;10.05;80.94;91120.44;4961813;28;20030;-86
2021/06/15 04:12:42;;;;;;;8.95;4.18;;;;;;;10.13;81.01;91126.66;4978052;28;20377;-85
2021/06/15 04:15:18;;;;;;;8.00;4.30;;;;;;;10.16;80.74;91117.44;4989378;28;20030;-85
2021/06/15 04:17:51;;;;;;;7.47;4.40;;;;;;;10.24;80.69;91125.16;4974441;28;20232;-85
2021/06/15 04:20:29;;;;;;;8.85;4.40;;;;;;;10.19;80.64;91119.41;4957523;28;20097;-86
2021/06/15 04:23:09;;;;;;;10.18;4.40;;;;;;;10.15;80.66;91121.13;4958723;28;20077;-85
2021/06/15 04:25:43;;;;;;;11.75;4.20;;;;;;;10.30;80.35;91133.59;4989818;28;20023;-85
2021/06/15 04:28:11;;;;;;;8.73;4.13;;;;;;;10.30;80.68;91128.38;4957601;28;20054;-85
2021/06/15 04:30:42;;;;;;;8.05;3.67;;;;;;;10.37;79.91;91139.03;4956955;28;20034;-86
2021/06/15 04:33:16;;;;;;;9.93;4.22;;;;;;;10.29;80.28;91132.84;4973345;28;20031;-85
2021/06/15 04:35:52;;;;;;;7.10;4.43;;;;;;;10.26;79.94;91132.72;4973260;28;20023;-85
2021/06/15 04:38:33;;;;;;;6.95;3.80;;;;;;;10.37;78.82;91128.63;4958922;28;20401;-85
2021/06/15 04:41:39;;;;;;;8.98;4.40;;;;;;;10.48;78.53;91129.75;4957752;28;20117;-85
2021/06/15 04:44:28;;;;;;;7.22;4.47;;;;;;;10.46;79.42;91142.34;4868736;29;20587;-86
2021/06/15 04:47:00;;;;;;;9.38;4.85;;;;;;;10.55;79.81;91128.47;4962825;28;20101;-85
2021/06/15 04:50:02;;;;;;;6.93;4.30;;;;;;;10.82;79.04;91134.94;4956859;28;20034;-85
2021/06/15 04:52:28;;;;;;;11.65;4.60;;;;;;;10.98;78.82;91123.53;4972852;28;20685;-85
2021/06/15 04:54:54;;;;;;;8.18;4.25;;;;;;;11.19;78.56;91131.25;4940552;28;20027;-86
2021/06/15 04:57:28;;;;;;;6.95;4.18;;;;;;;11.31;78.74;91133.13;4940499;28;20034;-85
2021/06/15 05:00:01;;;;;;;5.75;4.28;;;;;;;11.45;77.99;91125.72;4957137;28;20023;-85
2021/06/15 05:02:35;;;;;;;6.82;4.60;;;;;;;11.59;77.00;91127.22;4957539;28;20038;-86
2021/06/15 05:05:12;;;;;;;7.50;3.92;;;;;;;11.68;76.14;91128.63;4957256;28;20027;-86
2021/06/15 05:07:42;;;;;;;5.72;4.18;;;;;;;11.90;76.28;91122.19;4958162;28;20027;-86
2021/06/15 05:10:11;;;;;;;8.40;3.80;;;;;;;12.01;75.04;91129.56;4956424;28;20404;-86
2021/06/15 05:12:44;;;;;;;6.28;3.83;;;;;;;12.12;74.40;91117.56;4973655;28;20050;-86
2021/06/15 05:15:12;;;;;;;9.70;4.30;;;;;;;12.21;75.09;91115.59;4956840;28;20589;-85
2021/06/15 05:17:46;;;;;;;6.70;3.45;;;;;;;12.36;73.91;91124.56;4956391;28;20033;-85
2021/06/15 05:20:19;;;;;;;9.80;3.95;;;;;;;12.44;73.72;91124.44;4972420;28;20023;-86
2021/06/15 05:22:58;;;;;;;7.40;3.63;;;;;;;12.54;73.45;91132.88;4971555;28;20022;-85
2021/06/15 05:25:29;;;;;;;6.00;3.40;;;;;;;12.77;71.91;91127.88;4992718;28;20034;-85
2021/06/15 05:27:58;;;;;;;5.20;3.63;;;;;;;12.79;72.67;91126.44;4991564;28;20018;-86
2021/06/15 05:30:25;;;;;;;7.03;3.47;;;;;;;12.87;73.14;91127.38;4974665;28;20023;-86
2021/06/15 05:32:54;;;;;;;6.68;3.88;;;;;;;13.08;71.79;91129.75;4975274;28;20030;-86
2021/06/15 05:35:33;;;;;;;7.38;3.42;;;;;;;13.10;74.51;91133.53;4975353;28;20026;-86
2021/06/15 05:38:04;;;;;;;6.85;3.47;;;;;;;13.22;73.61;91131.94;4975976;28;20084;-86
2021/06/15 05:40:33;;;;;;;7.13;4.00;;;;;;;13.37;74.56;91137.19;4991329;28;20026;-86
2021/06/15 05:43:10;;;;;;;6.50;3.92;;;;;;;13.37;74.39;91139.81;4960317;28;20027;-86
2021/06/15 05:45:43;;;;;;;6.60;3.58;;;;;;;13.45;73.83;91143.34;4975187;28;20081;-86
2021/06/15 05:48:09;;;;;;;6.15;3.90;;;;;;;13.58;73.14;91138.78;4959673;28;20030;-86
2021/06/15 05:50:36;;;;;;;7.07;3.58;;;;;;;13.68;74.21;91148.00;4973061;28;20026;-86
2021/06/15 05:53:02;;;;;;;9.48;3.95;;;;;;;13.84;75.36;91143.47;4989993;28;20029;-86
2021/06/15 05:55:29;;;;;;;9.30;4.05;;;;;;;13.90;74.91;91139.47;4966096;28;20392;-86
2021/06/15 05:57:58;;;;;;;9.40;4.75;;;;;;;14.01;74.02;91140.47;4939701;28;20078;-86
2021/06/15 06:00:26;;;;;;;7.93;4.50;;;;;;;14.10;73.51;91141.03;4953244;28;20033;-85
2021/06/15 06:02:53;;;;;;;7.05;4.05;;;;;;;14.22;75.07;91144.63;4991008;28;20032;-86
2021/06/15 06:08:06;;;;;;;11.43;4.90;;;;;;;14.45;74.99;91140.22;4970046;28;20023;-87
2021/06/15 06:10:32;;;;;;;8.13;3.88;;;;;;;14.58;74.71;91136.38;4972246;28;20027;-85
2021/06/15 06:13:00;;;;;;;10.27;4.47;;;;;;;14.75;73.59;91140.41;4955197;28;20027;-86
2021/06/15 06:15:28;;;;;;;10.38;4.32;;;;;;;14.89;73.45;91131.28;4971089;28;20029;-86
2021/06/15 06:17:55;;;;;;;9.52;4.32;;;;;;;15.03;72.48;91131.53;4971433;28;20026;-85
2021/06/15 06:20:22;;;;;;;9.77;4.50;;;;;;;15.20;73.35;91133.69;4939243;28;20034;-88
2021/06/15 06:22:48;;;;;;;10.65;4.22;;;;;;;15.35;72.96;91136.56;4938960;28;20081;-87
2021/06/15 06:25:14;;;;;;;7.00;4.05;;;;;;;15.50;74.20;91135.66;4946616;28;20034;-86
2021/06/15 06:27:40;;;;;;;7.43;4.10;;;;;;;15.61;72.50;91133.94;4958099;28;20030;-85
2021/06/15 06:30:08;;;;;;;7.82;3.92;;;;;;;15.77;70.44;91129.34;4974046;28;20058;-86
2021/06/15 06:32:38;;;;;;;7.57;3.65;;;;;;;15.90;69.07;91134.38;4991420;28;20456;-87
2021/06/15 06:35:05;;;;;;;6.82;3.88;;;;;;;16.07;70.88;91133.88;4989925;28;20521;-87
2021/06/15 06:37:33;;;;;;;8.30;3.67;;;;;;;16.19;69.20;91138.91;4960400;28;20042;-87
2021/06/15 06:39:59;;;;;;;6.75;3.72;;;;;;;16.38;68.76;91137.25;4971797;28;20033;-87
2021/06/15 06:42:28;;;;;;;13.25;3.88;;;;;;;16.48;69.77;91136.63;4981904;28;20058;-87
2021/06/15 06:44:58;;;;;;;5.88;3.67;;;;;;;16.69;71.20;91126.34;4995229;28;20031;-86
2021/06/15 06:47:25;;;;;;;6.25;3.88;;;;;;;16.80;70.58;91128.38;4978498;28;20081;-87
2021/06/15 06:49:52;;;;;;;8.68;4.28;;;;;;;16.94;70.27;91136.41;4993788;28;20026;-87
2021/06/15 06:52:18;;;;;;;8.73;3.72;;;;;;;17.14;66.97;91129.84;4962027;28;20524;-87
2021/06/15 06:54:45;;;;;;;9.95;3.85;;;;;;;17.34;65.60;91129.63;4994123;28;20027;-85
2021/06/15 06:57:18;;;;;;;7.90;3.20;;;;;;;17.54;59.95;91128.28;4995096;28;20026;-87
2021/06/15 06:59:45;;;;;;;4.43;3.33;;;;;;;17.79;61.21;91125.84;4993953;28;20030;-86
2021/06/15 07:02:11;;;;;;;12.55;3.25;;;;;;;18.04;59.07;91131.28;4978043;28;20692;-87
2021/06/15 07:04:43;;;;;;;9.55;3.40;;;;;;;18.20;58.38;91119.66;4977669;28;20037;-86
2021/06/15 07:07:14;;;;;;;6.60;3.47;;;;;;;18.50;57.66;91117.53;4994338;28;20045;-87
2021/06/15 07:09:40;;;;;;;11.20;4.22;;;;;;;18.62;58.04;91127.78;4978519;28;20022;-86
2021/06/15 07:12:06;;;;;;;6.38;3.83;;;;;;;18.81;56.65;91126.72;4995016;28;20052;-89
2021/06/15 07:14:36;;;;;;;9.65;4.13;;;;;;;18.86;55.74;91126.34;5020602;28;20045;-90
2021/06/15 07:17:04;;;;;;;8.57;4.00;;;;;;;18.98;55.37;91122.63;5004647;28;20042;-87
2021/06/15 07:19:29;;;;;;;6.88;4.13;;;;;;;19.05;56.59;91129.81;4984121;28;20018;-87
2021/06/15 07:21:56;;;;;;;15.20;4.65;;;;;;;19.21;55.79;91132.09;4994585;28;20503;-87
2021/06/15 07:24:22;;;;;;;10.13;4.55;;;;;;;19.23;54.04;91137.78;4978533;28;20400;-88
2021/06/15 07:26:49;;;;;;;8.15;5.03;;;;;;;19.29;53.62;91126.47;4962271;28;20030;-87
2021/06/15 07:29:15;;;;;;;11.85;5.18;;;;;;;19.48;52.96;91125.34;4993783;28;20088;-87
2021/06/15 07:31:42;;;;;;;6.50;4.40;;;;;;;19.67;53.71;91131.41;4995329;28;20030;-86
2021/06/15 07:34:09;;;;;;;11.27;4.65;;;;;;;19.63;49.20;91128.00;4993818;28;20022;-86
2021/06/15 07:36:34;;;;;;;7.55;4.07;;;;;;;19.65;50.79;91120.47;4970339;28;20487;-87
2021/06/15 07:39:02;;;;;;;8.95;4.85;;;;;;;19.80;55.40;91128.00;4989234;28;20022;-87
2021/06/15 07:41:28;;;;;;;9.07;4.50;;;;;;;19.92;53.65;91126.84;4960123;28;20031;-87
2021/06/15 07:43:55;;;;;;;9.55;4.53;;;;;;;20.04;52.92;91128.34;4974463;28;20050;-86
2021/06/15 07:46:20;;;;;;;5.93;3.63;;;;;;;20.05;51.13;91129.84;4977476;28;20051;-87
2021/06/15 07:48:51;;;;;;;7.82;3.95;;;;;;;20.17;49.47;91133.97;4988819;28;20140;-88
2021/06/15 07:51:18;;;;;;;7.32;4.03;;;;;;;20.36;49.93;91136.22;4958763;28;20031;-87
2021/06/15 07:53:44;;;;;;;11.52;4.05;;;;;;;20.47;45.81;91123.69;4961116;28;20014;-88
2021/06/15 07:56:11;;;;;;;7.35;4.30;;;;;;;20.64;45.51;91132.75;5051778;23;20042;-84
2021/06/15 07:58:37;;;;;;;10.68;4.40;;;;;;;20.67;48.32;91134.63;4997244;28;20065;-85
2021/06/15 08:01:03;;;;;;;10.20;4.00;;;;;;;20.70;45.72;91139.13;4996608;28;20053;-85
2021/06/15 08:03:29;;;;;;;7.40;3.95;;;;;;;20.62;48.88;91121.03;4983603;28;20076;-84
2021/06/15 08:05:54;;;;;;;5.60;3.45;;;;;;;20.93;44.99;91133.38;4967897;28;20480;-85
2021/06/15 08:08:22;;;;;;;7.70;3.70;;;;;;;20.85;40.22;91118.66;4997172;28;20195;-85
2021/06/15 08:10:49;;;;;;;5.25;3.40;;;;;;;20.90;43.78;91130.75;5008124;28;20030;-84
2021/06/15 08:13:17;;;;;;;5.68;3.75;;;;;;;21.01;45.71;91134.84;5013110;28;20026;-85
2021/06/15 08:15:45;;;;;;;6.88;3.40;;;;;;;21.13;43.21;91123.06;5013206;28;20026;-86
2021/06/15 08:18:12;;;;;;;5.38;3.22;;;;;;;21.17;42.28;91118.47;4997457;28;20026;-85
2021/06/15 08:20:39;;;;;;;5.03;3.08;;;;;;;21.37;39.25;91124.06;4986482;28;20026;-85
2021/06/15 08:23:09;;;;;;;6.53;3.38;;;;;;;21.34;40.33;91116.88;5008890;28;20435;-85
2021/06/15 08:25:34;;;;;;;6.28;3.10;;;;;;;21.44;41.58;91121.34;4994292;28;20178;-85
2021/06/15 08:28:08;;;;;;;6.93;3.15;;;;;;;21.39;38.53;91108.53;4963886;28;20492;-85
2021/06/15 08:30:35;;;;;;;;;;;;;;;21.44;41.62;91124.00;4979272;28;20022;-85
2021/06/15 08:33:02;;;;;;;7.22;3.45;;;;;;;21.59;39.81;91115.94;5007638;28;19945;-85
2021/06/15 08:35:28;;;;;;;8.25;3.85;;;;;;;21.44;41.05;91110.00;4996760;28;20025;-84
2021/06/15 08:37:56;;;;;;;5.93;3.53;;;;;;;21.48;40.45;91108.84;5001196;28;20037;-85
2021/06/15 08:40:25;;;;;;;8.15;3.75;;;;;;;21.57;41.70;91110.28;4997649;28;20487;-85
2021/06/15 08:42:52;;;;;;;8.75;4.20;;;;;;;21.61;42.78;91116.31;5005181;28;20105;-85
2021/06/15 08:45:19;;;;;;;10.98;4.05;;;;;;;21.64;45.64;91128.78;4987405;28;20444;-85
2021/06/15 08:47:47;;;;;;;9.45;4.10;;;;;;;21.65;43.65;91119.69;5002555;28;20029;-84
2021/06/15 08:50:18;;;;;;;8.68;4.30;;;;;;;21.65;42.69;91125.00;4996257;28;20559;-85
2021/06/15 08:52:44;;;;;;;8.52;4.22;;;;;;;21.62;43.90;91126.50;4996401;28;20061;-85
2021/06/15 08:55:09;;;;;;;7.60;4.30;;;;;;;21.80;43.47;91121.09;4980258;28;20022;-84
2021/06/15 08:57:35;;;;;;;6.15;3.97;;;;;;;21.71;42.94;91128.75;4980275;28;20026;-85
2021/06/15 09:00:02;;;;;;;6.93;3.95;;;;;;;21.86;44.48;91119.50;4992860;28;20022;-85
2021/06/15 09:02:27;;;;;;;7.78;4.18;;;;;;;22.01;41.90;91127.34;4990911;28;20198;-85
2021/06/15 09:04:53;;;;;;;6.95;4.10;;;;;;;21.86;41.23;91114.19;4979296;28;20475;-85
2021/06/15 09:07:19;;;;;;;9.38;3.80;;;;;;;22.10;42.99;91133.69;5012733;28;20083;-85
2021/06/15 09:09:48;;;;;;;10.48;4.07;;;;;;;22.04;40.16;91137.16;4979692;28;20041;-84
2021/06/15 09:12:19;;;;;;;5.75;3.88;;;;;;;22.02;42.59;91124.31;4996271;28;20025;-84
2021/06/15 09:14:51;;;;;;;8.55;3.97;;;;;;;22.14;40.52;91136.31;4980698;28;20030;-85
2021/06/15 09:17:28;;;;;;;7.15;3.50;;;;;;;22.23;42.09;91141.97;4997108;28;20072;-84
2021/06/15 09:19:59;;;;;;;7.20;4.20;;;;;;;22.09;40.56;91128.81;5013881;28;20021;-85
2021/06/15 09:22:30;;;;;;;13.10;3.70;;;;;;;22.23;43.41;91141.97;4997185;28;20060;-85
2021/06/15 09:24:59;;;;;;;8.23;3.60;;;;;;;22.31;42.61;91137.34;4996646;28;20033;-85
2021/06/15 09:27:40;;;;;;;9.32;4.15;;;;;;;22.31;39.72;91147.94;5014060;28;20021;-85
2021/06/15 09:30:11;;;;;;;5.03;3.97;;;;;;;22.28;40.60;91146.06;4996277;28;20049;-85
2021/06/15 09:32:41;;;;;;;7.40;4.18;;;;;;;22.16;39.32;91150.00;4996619;28;20041;-85
2021/06/15 09:35:16;;;;;;;6.75;4.15;;;;;;;22.26;41.04;91141.19;4981480;28;20115;-85
2021/06/15 09:37:54;;;;;;;8.50;4.13;;;;;;;22.41;41.85;91142.53;5005015;28;20018;-84
2021/06/15 09:40:23;;;;;;;7.63;4.00;;;;;;;22.39;39.06;91149.38;4991998;28;20030;-85
2021/06/15 09:43:02;;;;;;;8.43;3.95;;;;;;;22.26;39.94;91151.78;4992797;28;20025;-85
2021/06/15 09:45:38;;;;;;;7.25;4.43;;;;;;;22.13;41.41;91148.84;4996089;28;20120;-85
2021/06/15 09:48:28;;;;;;;10.30;4.30;;;;;;;22.05;40.41;91149.28;4995626;28;20515;-85
2021/06/15 09:51:14;;;;;;;14.07;4.35;;;;;;;22.50;38.81;91154.56;4997439;28;20036;-85
2021/06/15 09:53:45;;;;;;;7.88;4.20;;;;;;;22.19;39.83;91149.19;4997362;28;20597;-84
2021/06/15 09:56:15;;;;;;;9.45;4.30;;;;;;;22.27;40.19;91141.94;5012497;28;20033;-85
2021/06/15 09:58:51;;;;;;;8.90;3.67;;;;;;;22.30;40.32;91152.50;4994099;28;20034;-85
2021/06/15 10:01:28;;;;;;;7.97;4.18;;;;;;;22.19;39.63;91151.84;4977523;28;20040;-85
2021/06/15 10:04:16;;;;;;;8.10;4.30;;;;;;;22.26;41.13;91146.50;4976778;28;20419;-85
2021/06/15 10:06:49;;;;;;;9.50;4.75;;;;;;;22.38;40.57;91156.59;4993455;28;20029;-85
2021/06/15 10:09:24;;;;;;;7.82;4.20;;;;;;;22.40;39.35;91156.97;4992745;28;20077;-85
2021/06/15 10:11:53;;;;;;;9.48;3.90;;;;;;;22.53;42.39;91151.13;4976821;28;20088;-85
2021/06/15 10:14:19;;;;;;;7.97;4.30;;;;;;;22.74;39.40;91158.13;4977967;28;20029;-85
2021/06/15 10:16:46;;;;;;;10.45;4.28;;;;;;;22.52;38.99;91157.59;4996851;28;20041;-85
2021/06/15 10:19:14;;;;;;;6.18;3.97;;;;;;;22.60;38.98;91159.03;4996566;28;20041;-85
2021/06/15 10:21:41;;;;;;;7.63;4.40;;;;;;;22.67;39.16;91148.31;4964239;28;20049;-84
2021/06/15 10:24:14;;;;;;;7.65;3.80;;;;;;;22.81;39.37;91158.03;4980161;28;20026;-84
2021/06/15 10:26:46;;;;;;;7.03;4.20;;;;;;;23.01;40.29;91145.69;4982705;28;20036;-85
2021/06/15 10:29:15;;;;;;;6.55;3.95;;;;;;;22.72;37.31;91142.59;4981847;28;20026;-85
2021/06/15 10:31:44;;;;;;;7.85;3.72;;;;;;;22.96;40.33;91148.00;4981817;28;20034;-85
2021/06/15 10:34:12;;;;;;;7.88;3.85;;;;;;;22.94;36.61;91145.75;4982539;28;20053;-85
2021/06/15 10:36:44;;;;;;;7.82;4.00;;;;;;;22.83;38.17;91143.22;4994387;28;20018;-82
2021/06/15 10:39:18;;;;;;;9.18;3.60;;;;;;;23.32;38.98;91149.06;5006920;28;20030;-83
2021/06/15 10:41:47;;;;;;;14.35;3.88;;;;;;;23.13;38.48;91141.72;5008450;28;20026;-83
2021/06/15 10:44:15;;;;;;;10.45;4.28;;;;;;;23.09;36.93;91141.03;5007067;28;20026;-84
2021/06/15 10:46:43;;;;;;;8.15;4.28;;;;;;;23.26;36.16;91145.34;4996681;28;20031;-85
2021/06/15 10:49:16;;;;;;;6.47;4.03;;;;;;;23.29;38.30;91139.22;4995616;28;20551;-81
2021/06/15 10:51:54;;;;;;;6.93;4.20;;;;;;;23.17;36.23;91139.00;4995844;28;20027;-83
2021/06/15 10:54:34;;;;;;;7.20;3.75;;;;;;;23.26;36.00;91134.72;4997169;28;20403;-84
2021/06/15 10:57:19;;;;;;;10.35;4.45;;;;;;;23.32;35.90;91135.00;4996176;28;20034;-84
2021/06/15 11:00:11;;;;;;;7.38;3.83;;;;;;;23.47;38.23;91138.97;5008510;28;20064;-85
2021/06/15 11:02:39;;;;;;;6.82;4.05;;;;;;;23.53;36.60;91129.41;5017079;28;20026;-85
2021/06/15 11:05:38;;;;;;;9.77;4.35;;;;;;;23.78;36.50;91130.94;4999537;28;20085;-85
2021/06/15 11:08:20;;;;;;;7.15;3.55;;;;;;;23.95;34.44;91126.50;5010416;28;20030;-84
2021/06/15 11:11:03;;;;;;;7.00;3.65;;;;;;;24.07;37.07;91120.59;4994640;28;20030;-82
2021/06/15 11:13:38;;;;;;;6.93;3.60;;;;;;;24.13;33.29;91124.28;4978892;28;20121;-83
2021/06/15 11:16:05;;;;;;;9.20;3.88;;;;;;;24.19;36.64;91116.59;5009675;28;20394;-83
2021/06/15 11:18:31;;;;;;;6.55;3.67;;;;;;;24.44;35.78;91116.16;4994974;28;20030;-83
2021/06/15 11:20:56;;;;;;;6.32;3.50;;;;;;;24.71;37.28;91122.13;4997370;28;20037;-85
2021/06/15 11:23:25;;;;;;;7.97;3.42;;;;;;;24.77;33.07;91133.03;5022240;28;20025;-82
2021/06/15 11:25:59;;;;;;;7.35;3.58;;;;;;;24.52;32.18;91131.63;5019610;28;20029;-84
2021/06/15 11:28:55;;;;;;;6.60;3.50;;;;;;;24.47;33.60;91131.34;4998413;28;20022;-83
2021/06/15 11:31:22;;;;;;;6.50;3.72;;;;;;;24.47;34.84;91139.31;4999968;28;20026;-85
2021/06/15 11:34:14;;;;;;;8.73;4.10;;;;;;;24.45;33.99;91138.97;5016279;28;20495;-85
2021/06/15 11:36:50;;;;;;;11.23;4.20;;;;;;;24.49;33.95;91142.34;4994598;28;20022;-84
2021/06/15 11:39:26;;;;;;;7.85;3.80;;;;;;;24.48;34.17;91127.50;5014226;28;20124;-84
2021/06/15 11:42:09;;;;;;;11.77;4.10;;;;;;;24.53;34.59;91135.03;5016632;28;20120;-84
2021/06/15 11:45:00;;;;;;;9.45;3.80;;;;;;;24.78;34.90;91137.97;5015732;28;20032;-83
2021/06/15 11:47:47;;;;;;;10.32;4.70;;;;;;;24.73;32.73;91138.44;5014409;28;20034;-83
2021/06/15 11:50:21;;;;;;;7.43;4.03;;;;;;;24.51;33.52;91130.09;5013860;28;20029;-82
2021/06/15 11:52:59;;;;;;;;;;;;;;;24.59;33.66;91127.31;5014987;28;20539;-82
2021/06/15 11:55:33;;;;;;;6.65;4.03;;;;;;;24.76;34.66;91129.63;5015745;28;20309;-82
2021/06/15 11:58:06;;;;;;;8.65;4.10;;;;;;;25.14;33.60;91129.28;5015361;28;20030;-82